Tyre, New York
Current Conditions -  °F | °C
As of 12:53 PM on Friday 31 Oct 2014 (Local Time) from KPEO Reporting Station
Broken Clouds Broken Clouds  
Wind Chill: 50°   Ceiling: 6000
Heat Index: 50°   Visibility: 10mi
Dew Point: 35°   Wind: 6mph
Humidity: 57%   Direction: 120°ESE
Pressure: 29.94"   Gusts: NA
Location:  42.9691°N, 76.7961°W
Report Text: KPEO 311653Z AUTO 12005KT 10SM FEW034 SCT045 BKN060 10/02 A2994 RMK AO2 SLP143 T01000017
Loading
Personal Weather Stations






























Interactive Weather Map
Tropical Storm Tracking
New forecast layout! Learn more

10-Day Weather Forecast

Advertisements
Track Severe Weather on mobile